Accueil
METAR-TAF:

METAR-TAF

Aéroports :

Tunis, Tunisie

Aéroport international de Tunis-Carthage

latitude: 36-50N, longitude: 010-14E, altitude: 3 m

Observation

Le bulletin a été fait il y a 19 minutes, à 04:30 UTC
Température 18°C
Humidité 88%
Pression 1021 hPa
Visibilité 10 km ou plus
Quelques nuages à une hauteur de 2300 ft

METAR: DTTA 220430Z /////KT 9999 FEW023 18/16 Q1021 NOSIG

Heure: 05:49 (04:49 UTC)

Prévision

Le bulletin a été fait il y a 6 heures et 39 minutes, à 22:10 UTC
Prévision valable du 22 à 00 UTC au 22 à 24 UTC
Vent 5 kt de ouest
Visibilité 10 km ou plus
Nuages épars à une hauteur de 2300 ft
Temporairement
du 22 à 12 UTC au 22 à 22 UTC
Visibilité: 3000 m
Quelques nuages à une hauteur de 2600 ft, Cumulonimbus.
pluie faible

TAF: DTTA 212210Z 2200/2224 27005KT 9999 SCT023 TEMPO 2212/2222 3000 -RA FEW026CB

Observations et prévisions météorologiques de plus de 4000 aéroports (messages METAR et TAF).

Les stations disponibles sont représentées par des disques jaunes et rouges sur la carte.

Passer la souris dessus pour voir le nom de la station.

Cliquer dessus pour voir les observations et prévisions météorologiques.

Pour changer de carte: cliquez sur les boutons verts avec une croix noire pour zoomer, sur le bouton vert avec un tiret pour effectuer un zoom arrière, ou sur les flèches vertes pour les cartes adjacentes.


METAR-TAF: